Time;durP1;ratioP1;P1;durP2;ratioP2;P2;SDS_P1;SDS_P2;PMS_P1;PMS_P2;Temp;Humidity;BMP_temperature;BMP_pressure;BME280_temperature;BME280_humidity;BME280_pressure;Samples;Min_cycle;Max_cycle;Signal;HPM_P1;HPM_P2
2023/12/06 00:02:23;;;;;;;;;;;4.20;99.90;;;;;;5114003;27;19961;-69
2023/12/06 00:04:49;;;;;;;;;;;4.20;99.90;;;;;;5106045;28;19994;-69
2023/12/06 00:07:14;;;;;;;;;;;4.20;99.90;;;;;;5105878;28;19995;-69
2023/12/06 00:09:40;;;;;;;;;;;4.20;99.90;;;;;;5105685;28;20498;-69
2023/12/06 00:12:05;;;;;;;;;;;4.10;99.90;;;;;;5106085;28;19919;-69
2023/12/06 00:14:31;;;;;;;;;;;4.10;99.90;;;;;;5102945;28;19915;-69
2023/12/06 00:16:56;;;;;;;;;;;4.20;99.90;;;;;;5105595;28;19912;-69
2023/12/06 00:19:22;;;;;;;;;;;4.10;99.90;;;;;;5105775;28;19919;-69
2023/12/06 00:21:48;;;;;;;;;;;4.10;99.90;;;;;;5105943;28;19908;-69
2023/12/06 00:24:13;;;;;;;;;;;4.10;99.90;;;;;;5122019;27;19998;-69
2023/12/06 00:26:42;;;;;;;;;;;4.10;99.90;;;;;;5125541;27;19915;-69
2023/12/06 00:29:07;;;;;;;;;;;4.10;99.90;;;;;;5119058;27;19920;-69
2023/12/06 00:31:33;;;;;;;;;;;4.10;99.90;;;;;;5105606;27;19908;-69
2023/12/06 00:33:59;;;;;;;;;;;4.10;99.90;;;;;;5105453;28;19911;-69
2023/12/06 00:36:24;;;;;;;;;;;4.10;99.90;;;;;;5104876;27;19912;-69
2023/12/06 00:38:50;;;;;;;;;;;4.10;99.90;;;;;;5105687;28;19912;-69
2023/12/06 00:41:15;;;;;;;;;;;4.10;99.90;;;;;;5105574;28;19911;-69
2023/12/06 00:43:41;;;;;;;;;;;4.10;99.90;;;;;;5105114;28;19915;-69
2023/12/06 00:46:06;;;;;;;;;;;4.10;99.90;;;;;;5103924;28;19955;-69
2023/12/06 00:48:31;;;;;;;;;;;4.10;99.90;;;;;;5106909;27;19912;-69
2023/12/06 00:50:57;;;;;;;;;;;4.10;99.90;;;;;;5111860;27;20015;-69
2023/12/06 00:53:22;;;;;;;;;;;4.10;99.90;;;;;;5122320;27;19908;-69
2023/12/06 00:55:48;;;;;;;;;;;4.10;99.90;;;;;;5105169;27;20337;-69
2023/12/06 00:58:13;;;;;;;;;;;4.10;99.90;;;;;;5113533;27;19912;-69
2023/12/06 01:00:39;;;;;;;;;;;4.10;99.90;;;;;;5104664;28;19955;-69
2023/12/06 01:03:04;;;;;;;;;;;4.10;99.90;;;;;;5105126;28;19956;-69
2023/12/06 01:05:30;;;;;;;;;;;4.00;99.90;;;;;;5104473;28;19916;-69
2023/12/06 01:07:56;;;;;;;;;;;4.10;99.90;;;;;;5105032;28;19911;-69
2023/12/06 01:10:22;;;;;;;;;;;4.00;99.90;;;;;;5104640;27;19923;-69
2023/12/06 01:12:47;;;;;;;;;;;4.00;99.90;;;;;;5104891;28;20474;-69
2023/12/06 01:15:13;;;;;;;;;;;4.00;99.90;;;;;;5104590;28;19912;-69
2023/12/06 01:17:38;;;;;;;;;;;4.00;99.90;;;;;;5104185;28;19951;-69
2023/12/06 01:20:06;;;;;;;;;;;4.00;99.90;;;;;;5104812;28;20309;-69
2023/12/06 01:22:31;;;;;;;;;;;4.00;99.90;;;;;;5112872;27;19975;-69
2023/12/06 01:24:57;;;;;;;;;;;4.00;99.90;;;;;;5104233;28;19911;-69
2023/12/06 01:27:23;;;;;;;;;;;4.00;99.90;;;;;;5104576;28;19955;-69
2023/12/06 01:29:48;;;;;;;;;;;4.00;99.90;;;;;;5100549;28;19959;-69
2023/12/06 01:32:14;;;;;;;;;;;4.00;99.90;;;;;;5100254;28;20010;-69
2023/12/06 01:34:39;;;;;;;;;;;4.00;99.90;;;;;;5102612;28;20632;-69
2023/12/06 01:37:05;;;;;;;;;;;4.00;99.90;;;;;;5104170;28;19919;-69
2023/12/06 01:39:30;;;;;;;;;;;4.00;99.90;;;;;;5108628;28;19923;-69
2023/12/06 01:41:56;;;;;;;;;;;4.00;99.90;;;;;;5116801;27;19972;-69
2023/12/06 01:44:22;;;;;;;;;;;4.00;99.90;;;;;;5107761;27;19918;-69
2023/12/06 01:46:47;;;;;;;;;;;4.00;99.90;;;;;;5120821;27;20013;-69
2023/12/06 01:49:13;;;;;;;;;;;4.00;99.90;;;;;;5104096;28;20015;-69
2023/12/06 01:51:39;;;;;;;;;;;4.00;99.90;;;;;;5103940;28;19998;-69
2023/12/06 01:54:05;;;;;;;;;;;4.00;99.90;;;;;;5104481;28;19911;-69
2023/12/06 01:56:31;;;;;;;;;;;4.00;99.90;;;;;;5103869;28;19916;-69
2023/12/06 01:58:56;;;;;;;;;;;4.00;99.90;;;;;;5104433;28;19919;-69
2023/12/06 02:01:22;;;;;;;;;;;4.00;99.90;;;;;;5112454;27;19998;-69
2023/12/06 02:03:48;;;;;;;;;;;3.90;99.90;;;;;;5116276;27;19946;-69
2023/12/06 02:06:14;;;;;;;;;;;3.90;99.90;;;;;;5116747;27;19955;-69
2023/12/06 02:08:41;;;;;;;;;;;3.90;99.90;;;;;;5115187;28;19911;-69
2023/12/06 02:11:06;;;;;;;;;;;4.00;99.90;;;;;;5120948;27;19915;-69
2023/12/06 02:13:32;;;;;;;;;;;3.90;99.90;;;;;;5114120;27;19912;-69
2023/12/06 02:15:59;;;;;;;;;;;3.90;99.90;;;;;;5103733;28;20386;-69
2023/12/06 02:18:25;;;;;;;;;;;3.90;99.90;;;;;;5103983;28;19912;-69
2023/12/06 02:20:52;;;;;;;;;;;3.90;99.90;;;;;;5104090;28;19912;-69
2023/12/06 02:23:20;;;;;;;;;;;3.90;99.90;;;;;;5112696;27;20376;-69
2023/12/06 02:25:45;;;;;;;;;;;3.90;99.90;;;;;;5103548;28;20006;-69
2023/12/06 02:28:11;;;;;;;;;;;3.90;99.90;;;;;;5119323;28;20014;-69
2023/12/06 02:30:36;;;;;;;;;;;3.90;99.90;;;;;;5103914;27;20617;-69
2023/12/06 02:33:02;;;;;;;;;;;3.90;99.90;;;;;;5118087;27;19955;-69
2023/12/06 02:35:33;;;;;;;;;;;3.90;99.90;;;;;;5122875;27;19928;-69
2023/12/06 02:38:00;;;;;;;;;;;3.90;99.90;;;;;;5105434;28;19907;-69
2023/12/06 02:40:27;;;;;;;;;;;3.90;99.90;;;;;;5106079;28;19919;-69
2023/12/06 02:42:52;;;;;;;;;;;3.90;99.90;;;;;;5107820;28;19956;-69
2023/12/06 02:45:18;;;;;;;;;;;3.80;99.90;;;;;;5107369;28;20400;-69
2023/12/06 02:47:44;;;;;;;;;;;3.90;99.90;;;;;;5107136;28;20247;-69
2023/12/06 02:50:10;;;;;;;;;;;3.80;99.90;;;;;;5107454;28;20018;-69
2023/12/06 02:52:35;;;;;;;;;;;3.80;99.90;;;;;;5117659;27;20084;-69
2023/12/06 02:55:01;;;;;;;;;;;3.80;99.90;;;;;;5127849;27;20586;-69
2023/12/06 02:57:26;;;;;;;;;;;3.80;99.90;;;;;;5127525;27;19916;-69
2023/12/06 02:59:52;;;;;;;;;;;3.80;99.90;;;;;;5119287;27;19918;-69
2023/12/06 03:02:17;;;;;;;;;;;3.80;99.90;;;;;;5111335;27;19912;-69
2023/12/06 03:04:43;;;;;;;;;;;3.80;99.90;;;;;;5107191;28;19912;-69
2023/12/06 03:07:08;;;;;;;;;;;3.80;99.90;;;;;;5107225;28;20261;-69
2023/12/06 03:09:34;;;;;;;;;;;3.80;99.90;;;;;;5107101;27;19977;-69
2023/12/06 03:11:59;;;;;;;;;;;3.80;99.90;;;;;;5107317;28;19990;-69
2023/12/06 03:14:25;;;;;;;;;;;3.80;99.90;;;;;;5115426;27;19962;-69
2023/12/06 03:16:50;;;;;;;;;;;3.80;99.90;;;;;;5106984;28;19912;-69
2023/12/06 03:19:16;;;;;;;;;;;3.80;99.90;;;;;;5115570;27;19933;-69
2023/12/06 03:21:41;;;;;;;;;;;3.80;99.90;;;;;;5106637;27;20007;-69
2023/12/06 03:24:07;;;;;;;;;;;3.80;99.90;;;;;;5107224;28;19912;-69
2023/12/06 03:26:32;;;;;;;;;;;3.80;99.90;;;;;;5105002;28;20017;-69
2023/12/06 03:28:58;;;;;;;;;;;3.70;99.90;;;;;;5105020;28;19920;-69
2023/12/06 03:31:23;;;;;;;;;;;3.70;99.90;;;;;;5098003;28;19919;-69
2023/12/06 03:33:49;;;;;;;;;;;3.70;99.90;;;;;;5106639;28;20559;-69
2023/12/06 03:36:14;;;;;;;;;;;3.70;99.90;;;;;;5106333;28;19912;-69
2023/12/06 03:38:40;;;;;;;;;;;3.70;99.90;;;;;;5108942;27;20018;-69
2023/12/06 03:41:06;;;;;;;;;;;3.70;99.90;;;;;;5127117;27;20461;-69
2023/12/06 03:43:31;;;;;;;;;;;3.70;99.90;;;;;;5126677;27;19935;-69
2023/12/06 03:45:57;;;;;;;;;;;3.70;99.90;;;;;;5120763;27;19964;-69
2023/12/06 03:48:22;;;;;;;;;;;3.70;99.90;;;;;;5126869;27;19972;-69
2023/12/06 03:50:48;;;;;;;;;;;3.70;99.90;;;;;;5114414;27;19956;-69
2023/12/06 03:53:13;;;;;;;;;;;3.70;99.90;;;;;;5106200;28;19912;-69
2023/12/06 03:55:39;;;;;;;;;;;3.70;99.90;;;;;;5104285;28;19912;-69
2023/12/06 03:58:06;;;;;;;;;;;3.70;99.90;;;;;;5105996;27;20395;-69
2023/12/06 04:00:31;;;;;;;;;;;3.70;99.90;;;;;;5105944;27;19912;-69
2023/12/06 04:02:57;;;;;;;;;;;3.60;99.90;;;;;;5111091;27;19927;-69
2023/12/06 04:05:23;;;;;;;;;;;3.70;99.90;;;;;;5109074;27;19939;-69
2023/12/06 04:07:51;;;;;;;;;;;3.70;99.90;;;;;;5101937;27;19919;-69
2023/12/06 04:10:17;;;;;;;;;;;3.70;99.90;;;;;;5105171;28;19926;-69
2023/12/06 04:12:42;;;;;;;;;;;3.60;99.90;;;;;;5122174;27;20030;-69
2023/12/06 04:15:08;;;;;;;;;;;3.60;99.90;;;;;;5105758;27;19908;-69
2023/12/06 04:17:33;;;;;;;;;;;3.60;99.90;;;;;;5105721;28;19915;-69
2023/12/06 04:19:59;;;;;;;;;;;3.60;99.90;;;;;;5105708;28;19923;-69
2023/12/06 04:22:24;;;;;;;;;;;3.60;99.90;;;;;;5105405;28;20010;-69
2023/12/06 04:24:50;;;;;;;;;;;3.60;99.90;;;;;;5105901;28;20569;-69
2023/12/06 04:27:15;;;;;;;;;;;3.60;99.90;;;;;;5105435;28;20595;-69
2023/12/06 04:29:41;;;;;;;;;;;3.60;99.90;;;;;;5106631;27;20301;-69
2023/12/06 04:32:06;;;;;;;;;;;3.60;99.90;;;;;;5123898;27;19912;-69
2023/12/06 04:34:32;;;;;;;;;;;3.60;99.90;;;;;;5114820;27;20057;-69
2023/12/06 04:36:58;;;;;;;;;;;3.60;99.90;;;;;;5117139;27;19918;-69
2023/12/06 04:39:23;;;;;;;;;;;3.60;99.90;;;;;;5117016;27;20291;-69
2023/12/06 04:41:49;;;;;;;;;;;3.60;99.90;;;;;;5103664;28;19908;-69
2023/12/06 04:44:14;;;;;;;;;;;3.60;99.90;;;;;;5105524;28;19930;-69
2023/12/06 04:46:40;;;;;;;;;;;3.60;99.90;;;;;;5104685;28;20564;-69
2023/12/06 04:49:05;;;;;;;;;;;3.60;99.90;;;;;;5104885;27;19912;-69
2023/12/06 04:51:31;;;;;;;;;;;3.60;99.90;;;;;;5104923;28;19919;-69
2023/12/06 04:53:56;;;;;;;;;;;3.50;99.90;;;;;;5105381;28;20623;-69
2023/12/06 04:56:22;;;;;;;;;;;3.60;99.90;;;;;;5104906;28;19911;-69
2023/12/06 04:58:47;;;;;;;;;;;3.60;99.90;;;;;;5104403;28;19926;-69
2023/12/06 05:01:13;;;;;;;;;;;3.50;99.90;;;;;;5104507;27;19927;-69
2023/12/06 05:03:38;;;;;;;;;;;3.50;99.90;;;;;;5121713;27;20372;-69
2023/12/06 05:06:04;;;;;;;;;;;3.60;99.90;;;;;;5104718;28;19935;-69
2023/12/06 05:08:29;;;;;;;;;;;3.60;99.90;;;;;;5104561;28;20404;-69
2023/12/06 05:10:55;;;;;;;;;;;3.60;99.90;;;;;;5104990;28;19923;-69
2023/12/06 05:13:20;;;;;;;;;;;3.50;99.90;;;;;;5104819;28;19915;-69
2023/12/06 05:15:46;;;;;;;;;;;3.50;99.90;;;;;;5112652;27;19958;-69
2023/12/06 05:18:11;;;;;;;;;;;3.50;99.90;;;;;;5111258;27;19919;-69
2023/12/06 05:20:37;;;;;;;;;;;3.50;99.90;;;;;;5114586;27;19946;-69
2023/12/06 05:23:03;;;;;;;;;;;3.50;99.90;;;;;;5113091;27;19930;-69
2023/12/06 05:25:28;;;;;;;;;;;3.50;99.90;;;;;;5104517;28;19907;-69
2023/12/06 05:27:53;;;;;;;;;;;3.50;99.90;;;;;;5118820;27;20326;-69
2023/12/06 05:30:19;;;;;;;;;;;3.50;99.90;;;;;;5104017;28;19919;-69
2023/12/06 05:32:44;;;;;;;;;;;3.50;99.90;;;;;;5103428;28;19920;-69
2023/12/06 05:35:10;;;;;;;;;;;3.50;99.90;;;;;;5103933;28;19926;-69
2023/12/06 05:37:36;;;;;;;;;;;3.50;99.90;;;;;;5103422;28;19919;-69
2023/12/06 05:40:03;;;;;;;;;;;3.50;99.90;;;;;;5104607;28;19916;-69
2023/12/06 05:42:29;;;;;;;;;;;3.50;99.90;;;;;;5112923;28;19916;-69
2023/12/06 05:44:54;;;;;;;;;;;3.50;99.90;;;;;;5116726;27;19912;-69
2023/12/06 05:47:20;;;;;;;;;;;3.50;99.90;;;;;;5116544;27;19944;-69
2023/12/06 05:49:45;;;;;;;;;;;3.50;99.90;;;;;;5122177;27;19923;-69
2023/12/06 05:52:11;;;;;;;;;;;3.50;99.90;;;;;;5118214;27;19980;-69
2023/12/06 05:54:36;;;;;;;;;;;3.50;99.90;;;;;;5104132;28;19912;-69
2023/12/06 05:57:02;;;;;;;;;;;3.50;99.90;;;;;;5112695;27;20380;-69
2023/12/06 05:59:28;;;;;;;;;;;3.50;99.90;;;;;;5106745;27;19918;-69
2023/12/06 06:01:53;;;;;;;;;;;3.50;99.90;;;;;;5103880;28;19918;-69
2023/12/06 06:04:19;;;;;;;;;;;3.50;99.90;;;;;;5111838;28;20004;-69
2023/12/06 06:06:44;;;;;;;;;;;3.50;99.90;;;;;;5103186;28;19916;-69
2023/12/06 06:09:10;;;;;;;;;;;3.50;99.90;;;;;;5106312;28;19920;-69
2023/12/06 06:11:35;;;;;;;;;;;3.50;99.90;;;;;;5121450;27;19915;-69
2023/12/06 06:14:01;;;;;;;;;;;3.50;99.90;;;;;;5113485;27;20056;-69
2023/12/06 06:16:26;;;;;;;;;;;3.50;99.90;;;;;;5119360;27;20458;-69
2023/12/06 06:18:52;;;;;;;;;;;3.50;99.90;;;;;;5108278;28;20456;-69
2023/12/06 06:21:19;;;;;;;;;;;3.50;99.90;;;;;;5108325;28;19918;-69
2023/12/06 06:23:45;;;;;;;;;;;3.50;99.90;;;;;;5116200;27;19911;-69
2023/12/06 06:26:11;;;;;;;;;;;3.50;99.90;;;;;;5116158;27;19931;-69
2023/12/06 06:28:37;;;;;;;;;;;3.50;99.90;;;;;;5117661;27;19949;-69
2023/12/06 06:31:02;;;;;;;;;;;3.50;99.90;;;;;;5123904;27;19924;-69
2023/12/06 06:33:28;;;;;;;;;;;3.50;99.90;;;;;;5119595;27;20051;-69
2023/12/06 06:35:53;;;;;;;;;;;3.50;99.90;;;;;;5126560;27;19987;-69
2023/12/06 06:38:19;;;;;;;;;;;3.50;99.90;;;;;;5103269;28;19908;-69
2023/12/06 06:40:45;;;;;;;;;;;3.50;99.90;;;;;;5124367;27;19911;-69
2023/12/06 06:43:11;;;;;;;;;;;3.50;99.90;;;;;;5106079;28;19970;-69
2023/12/06 06:45:37;;;;;;;;;;;3.50;99.90;;;;;;5108600;27;19951;-69
2023/12/06 06:48:03;;;;;;;;;;;3.50;99.90;;;;;;5112626;27;19912;-69
2023/12/06 06:50:28;;;;;;;;;;;3.50;99.90;;;;;;5107844;28;20741;-69
2023/12/06 06:52:54;;;;;;;;;;;3.50;99.90;;;;;;5115489;27;20470;-69
2023/12/06 06:55:19;;;;;;;;;;;3.50;99.90;;;;;;5114801;27;20394;-69
2023/12/06 06:57:45;;;;;;;;;;;3.50;99.90;;;;;;5107756;27;20549;-69
2023/12/06 07:00:12;;;;;;;;;;;3.50;99.90;;;;;;5118091;27;19916;-69
2023/12/06 07:02:38;;;;;;;;;;;3.50;99.90;;;;;;5126008;27;19911;-69
2023/12/06 07:05:06;;;;;;;;;;;3.50;99.90;;;;;;5122470;27;19935;-69
2023/12/06 07:07:31;;;;;;;;;;;3.50;99.90;;;;;;5106864;27;19976;-69
2023/12/06 07:09:57;;;;;;;;;;;3.50;99.90;;;;;;5107207;28;20280;-69
2023/12/06 07:12:22;;;;;;;;;;;3.50;99.90;;;;;;5115419;27;19911;-69
2023/12/06 07:14:48;;;;;;;;;;;3.50;99.90;;;;;;5115750;27;19919;-69
2023/12/06 07:17:13;;;;;;;;;;;3.50;99.90;;;;;;5122206;27;19915;-69
2023/12/06 07:19:39;;;;;;;;;;;3.50;99.90;;;;;;5127084;27;20421;-69
2023/12/06 07:22:06;;;;;;;;;;;3.50;99.90;;;;;;5122825;27;20458;-69
2023/12/06 07:24:31;;;;;;;;;;;3.50;99.90;;;;;;5126465;27;19911;-69
2023/12/06 07:26:57;;;;;;;;;;;3.50;99.90;;;;;;5106840;28;20280;-69
2023/12/06 07:29:22;;;;;;;;;;;3.50;99.90;;;;;;5106580;28;19916;-69
2023/12/06 07:31:50;;;;;;;;;;;3.50;99.90;;;;;;5109196;27;20013;-69
2023/12/06 07:34:17;;;;;;;;;;;3.50;99.90;;;;;;5110634;27;19926;-69
2023/12/06 07:36:44;;;;;;;;;;;3.50;99.90;;;;;;5114817;27;19918;-70
2023/12/06 07:39:10;;;;;;;;;;;3.50;99.90;;;;;;5105434;28;19980;-69
2023/12/06 07:41:36;;;;;;;;;;;3.50;99.90;;;;;;5115454;27;20117;-69
2023/12/06 07:44:02;;;;;;;;;;;3.50;99.90;;;;;;5120009;27;20022;-69
2023/12/06 07:46:27;;;;;;;;;;;3.50;99.90;;;;;;5126207;27;19918;-69
2023/12/06 07:48:53;;;;;;;;;;;3.50;99.90;;;;;;5117575;27;19927;-69
2023/12/06 07:51:18;;;;;;;;;;;3.50;99.90;;;;;;5118032;27;19918;-69
2023/12/06 07:53:44;;;;;;;;;;;3.50;99.90;;;;;;5117213;27;19918;-69
2023/12/06 07:56:09;;;;;;;;;;;3.50;99.90;;;;;;5120652;27;20006;-69
2023/12/06 07:58:35;;;;;;;;;;;3.50;99.90;;;;;;5105916;27;19911;-69
2023/12/06 08:01:00;;;;;;;;;;;3.60;99.90;;;;;;5114543;27;20022;-69
2023/12/06 08:03:29;;;;;;;;;;;3.50;99.90;;;;;;5110328;27;19912;-69
2023/12/06 08:05:54;;;;;;;;;;;3.50;99.90;;;;;;5106113;27;19915;-69
2023/12/06 08:08:19;;;;;;;;;;;3.50;99.90;;;;;;5122014;27;20631;-70
2023/12/06 08:10:45;;;;;;;;;;;3.50;99.90;;;;;;5126028;27;19960;-69
2023/12/06 08:13:11;;;;;;;;;;;3.50;99.90;;;;;;5126174;27;19923;-69
2023/12/06 08:15:36;;;;;;;;;;;3.50;99.90;;;;;;5125803;27;19911;-69
2023/12/06 08:18:02;;;;;;;;;;;3.50;99.90;;;;;;5126271;27;19946;-69
2023/12/06 08:20:28;;;;;;;;;;;3.50;99.90;;;;;;5108742;27;19916;-69
2023/12/06 08:22:54;;;;;;;;;;;3.50;99.90;;;;;;5103852;27;20420;-69
2023/12/06 08:25:20;;;;;;;;;;;3.50;99.90;;;;;;5105142;27;19911;-69
2023/12/06 08:27:45;;;;;;;;;;;3.60;99.90;;;;;;5105030;28;19911;-69
2023/12/06 08:30:11;;;;;;;;;;;3.50;99.90;;;;;;5104462;28;19920;-69
2023/12/06 08:32:37;;;;;;;;;;;3.50;99.90;;;;;;5120353;27;19923;-69
2023/12/06 08:35:02;;;;;;;;;;;3.50;99.90;;;;;;5109518;27;19957;-69
2023/12/06 08:37:28;;;;;;;;;;;3.50;99.90;;;;;;5120754;27;20428;-69
2023/12/06 08:39:53;;;;;;;;;;;3.50;99.90;;;;;;5126086;27;20673;-69
2023/12/06 08:42:19;;;;;;;;;;;3.60;99.90;;;;;;5118676;27;19950;-69
2023/12/06 08:44:44;;;;;;;;;;;3.60;99.90;;;;;;5113256;27;19999;-69
2023/12/06 08:47:10;;;;;;;;;;;3.50;99.90;;;;;;5105112;28;20026;-69
2023/12/06 08:49:37;;;;;;;;;;;3.50;99.90;;;;;;5104847;28;19947;-69
2023/12/06 08:52:03;;;;;;;;;;;3.50;99.90;;;;;;5105122;28;19911;-69
2023/12/06 08:54:28;;;;;;;;;;;3.50;99.90;;;;;;5113359;27;19934;-69
2023/12/06 08:56:54;;;;;;;;;;;3.50;99.90;;;;;;5104534;28;20328;-69
2023/12/06 08:59:20;;;;;;;;;;;3.50;99.90;;;;;;5104482;27;19955;-69
2023/12/06 09:01:45;;;;;;;;;;;3.50;99.90;;;;;;5107197;27;19911;-69
2023/12/06 09:04:11;;;;;;;;;;;3.50;99.90;;;;;;5111131;27;19919;-69
2023/12/06 09:06:37;;;;;;;;;;;3.50;99.90;;;;;;5108258;27;20452;-69
2023/12/06 09:09:04;;;;;;;;;;;3.50;99.90;;;;;;5105120;28;19911;-69
2023/12/06 09:11:29;;;;;;;;;;;3.50;99.90;;;;;;5113033;27;19931;-69
2023/12/06 09:13:55;;;;;;;;;;;3.50;99.90;;;;;;5104986;28;20387;-69
2023/12/06 09:16:21;;;;;;;;;;;3.60;99.90;;;;;;5104351;28;19916;-69
2023/12/06 09:18:49;;;;;;;;;;;3.50;99.90;;;;;;5104344;28;19916;-69
2023/12/06 09:21:15;;;;;;;;;;;3.50;99.90;;;;;;5104749;28;19944;-69
2023/12/06 09:23:40;;;;;;;;;;;3.60;99.90;;;;;;5104493;28;19920;-69
2023/12/06 09:26:06;;;;;;;;;;;3.60;99.90;;;;;;5109659;27;20602;-69
2023/12/06 09:28:31;;;;;;;;;;;3.60;99.90;;;;;;5124648;27;19965;-69
2023/12/06 09:30:57;;;;;;;;;;;3.60;99.90;;;;;;5110406;27;19915;-69
2023/12/06 09:33:22;;;;;;;;;;;3.60;99.90;;;;;;5115417;27;19916;-69
2023/12/06 09:35:48;;;;;;;;;;;3.60;99.90;;;;;;5107424;27;19908;-69
2023/12/06 09:38:13;;;;;;;;;;;3.60;99.90;;;;;;5119332;27;19935;-69
2023/12/06 09:40:39;;;;;;;;;;;3.60;99.90;;;;;;5124439;27;19955;-69
2023/12/06 09:43:04;;;;;;;;;;;3.60;99.90;;;;;;5124650;27;20795;-69
2023/12/06 09:45:30;;;;;;;;;;;3.60;99.90;;;;;;5124739;27;19933;-69
2023/12/06 09:47:56;;;;;;;;;;;3.60;99.90;;;;;;5128832;27;19918;-69
2023/12/06 09:50:23;;;;;;;;;;;3.60;99.90;;;;;;5127493;27;20291;-69
2023/12/06 09:52:53;;;;;;;;;;;3.60;99.90;;;;;;5124962;27;20302;-69
2023/12/06 09:55:20;;;;;;;;;;;3.60;99.90;;;;;;5116235;27;20384;-69
2023/12/06 09:57:46;;;;;;;;;;;3.60;99.90;;;;;;5127275;27;19911;-69
2023/12/06 10:00:13;;;;;;;;;;;3.60;99.90;;;;;;5117821;27;19916;-69
2023/12/06 10:02:56;;;;;;;;;;;3.70;99.90;;;;;;5106640;28;19912;-69
2023/12/06 10:05:22;;;;;;;;;;;3.60;99.90;;;;;;5117911;27;20613;-69
2023/12/06 10:07:48;;;;;;;;;;;3.70;99.90;;;;;;5108806;27;19922;-69
2023/12/06 10:10:17;;;;;;;;;;;3.70;99.90;;;;;;5108395;27;19923;-69
2023/12/06 10:13:01;;;;;;;;;;;3.70;99.90;;;;;;5118032;27;19953;-69
2023/12/06 10:15:35;;;;;;;;;;;3.70;99.90;;;;;;5128635;27;20730;-69
2023/12/06 10:18:00;;;;;;;;;;;3.70;99.90;;;;;;5128613;27;19912;-69
2023/12/06 10:20:27;;;;;;;;;;;3.70;99.90;;;;;;5128771;27;20356;-69
2023/12/06 10:22:53;;;;;;;;;;;3.70;99.90;;;;;;5107864;27;19918;-69
2023/12/06 10:25:18;;;;;;;;;;;3.70;99.90;;;;;;5108632;27;19951;-69
2023/12/06 10:27:45;;;;;;;;;;;3.80;99.90;;;;;;5107653;28;19950;-69
2023/12/06 10:30:11;;;;;;;;;;;3.70;99.90;;;;;;5101944;28;20482;-69
2023/12/06 10:32:36;;;;;;;;;;;3.80;99.90;;;;;;5105876;28;19912;-69
2023/12/06 10:35:05;;;;;;;;;;;3.80;99.90;;;;;;5102246;27;19912;-69
2023/12/06 10:37:31;;;;;;;;;;;3.80;99.90;;;;;;5124674;27;19945;-69
2023/12/06 10:39:59;;;;;;;;;;;3.80;99.90;;;;;;5119292;27;19912;-69
2023/12/06 10:42:26;;;;;;;;;;;3.80;99.90;;;;;;5127403;27;19912;-69
2023/12/06 10:44:53;;;;;;;;;;;3.80;99.90;;;;;;5120269;27;20640;-69
2023/12/06 10:47:18;;;;;;;;;;;3.80;99.90;;;;;;5094979;28;19918;-69
2023/12/06 10:49:45;;;;;;;;;;;3.80;99.90;;;;;;5115625;27;19915;-69
2023/12/06 10:52:11;;;;;;;;;;;3.80;99.90;;;;;;5104417;27;20397;-69
2023/12/06 10:54:38;;;;;;;;;;;3.80;99.90;;;;;;5098184;27;19974;-69
2023/12/06 10:57:04;;;;;;;;;;;3.90;99.90;;;;;;5114446;27;19908;-69
2023/12/06 10:59:31;;;;;;;;;;;3.80;99.90;;;;;;5106264;27;19927;-69
2023/12/06 11:01:57;;;;;;;;;;;3.80;99.90;;;;;;5106490;28;19912;-69
2023/12/06 11:04:27;;;;;;;;;;;3.90;99.90;;;;;;5106680;28;19911;-69
2023/12/06 11:06:58;;;;;;;;;;;3.90;99.90;;;;;;5116395;27;19944;-69
2023/12/06 11:09:30;;;;;;;;;;;3.90;99.90;;;;;;5113965;27;19954;-69
2023/12/06 11:12:10;;;;;;;;;;;3.90;99.90;;;;;;5106562;27;19951;-69
2023/12/06 11:14:48;;;;;;;;;;;3.90;99.90;;;;;;5115352;27;20014;-69
2023/12/06 11:17:23;;;;;;;;;;;3.90;99.90;;;;;;5126691;27;19953;-69
2023/12/06 11:19:49;;;;;;;;;;;3.90;99.90;;;;;;5116244;27;20261;-69
2023/12/06 11:22:14;;;;;;;;;;;3.90;99.90;;;;;;5109160;27;19914;-69
2023/12/06 11:24:40;;;;;;;;;;;3.90;99.90;;;;;;5112862;27;19945;-69
2023/12/06 11:27:07;;;;;;;;;;;4.00;99.90;;;;;;5090544;27;20633;-69
2023/12/06 11:29:33;;;;;;;;;;;4.00;99.90;;;;;;5116077;27;19923;-69
2023/12/06 11:31:58;;;;;;;;;;;4.00;99.90;;;;;;5106476;27;19911;-69
2023/12/06 11:34:34;;;;;;;;;;;4.00;99.90;;;;;;5105619;28;19912;-69
2023/12/06 11:37:03;;;;;;;;;;;4.00;99.90;;;;;;5093722;28;19983;-69
2023/12/06 11:39:29;;;;;;;;;;;4.00;99.90;;;;;;5110610;27;20006;-69
2023/12/06 11:41:55;;;;;;;;;;;4.00;99.90;;;;;;5117416;27;19915;-69
2023/12/06 11:44:20;;;;;;;;;;;4.10;99.90;;;;;;5116875;27;20372;-69
2023/12/06 11:46:53;;;;;;;;;;;4.10;99.90;;;;;;5116989;27;19911;-69
2023/12/06 11:49:27;;;;;;;;;;;4.10;99.90;;;;;;5126043;27;19990;-69
2023/12/06 11:52:00;;;;;;;;;;;4.10;99.90;;;;;;5105485;27;20336;-69
2023/12/06 11:54:26;;;;;;;;;;;4.10;99.90;;;;;;5114206;27;20565;-69
2023/12/06 11:56:52;;;;;;;;;;;4.10;99.90;;;;;;5104945;28;19918;-69
2023/12/06 11:59:17;;;;;;;;;;;4.10;99.90;;;;;;5113712;27;19912;-69
2023/12/06 12:01:44;;;;;;;;;;;4.10;99.90;;;;;;5120563;27;19918;-69
2023/12/06 12:04:10;;;;;;;;;;;4.10;99.90;;;;;;5103842;28;20658;-69
2023/12/06 12:06:35;;;;;;;;;;;4.10;99.90;;;;;;5104654;28;19998;-69
2023/12/06 12:09:01;;;;;;;;;;;4.20;99.90;;;;;;5112899;27;20411;-69
2023/12/06 12:11:28;;;;;;;;;;;4.10;99.90;;;;;;5105012;28;19927;-69
2023/12/06 12:13:53;;;;;;;;;;;4.20;99.90;;;;;;5107301;27;19965;-69
2023/12/06 12:16:21;;;;;;;;;;;4.20;99.90;;;;;;5103691;28;19911;-69
2023/12/06 12:18:46;;;;;;;;;;;4.20;99.90;;;;;;5113300;27;19937;-69
2023/12/06 12:21:19;;;;;;;;;;;4.20;99.90;;;;;;5118162;27;19911;-69
2023/12/06 12:23:45;;;;;;;;;;;4.20;99.90;;;;;;5126138;27;19919;-69
2023/12/06 12:26:16;;;;;;;;;;;4.20;99.90;;;;;;5124590;27;19916;-69
2023/12/06 12:28:42;;;;;;;;;;;4.20;99.90;;;;;;5115732;27;20002;-69
2023/12/06 12:31:10;;;;;;;;;;;4.20;99.90;;;;;;5112260;27;19915;-69
2023/12/06 12:33:35;;;;;;;;;;;4.30;99.90;;;;;;5105443;28;20360;-69
2023/12/06 12:36:02;;;;;;;;;;;4.20;99.90;;;;;;5104958;28;19918;-69
2023/12/06 12:38:28;;;;;;;;;;;4.30;99.90;;;;;;5105540;28;20586;-69
2023/12/06 12:40:56;;;;;;;;;;;4.30;99.90;;;;;;5121827;27;19911;-69
2023/12/06 12:43:22;;;;;;;;;;;4.30;99.90;;;;;;5113999;27;19912;-69
2023/12/06 12:45:47;;;;;;;;;;;4.30;99.90;;;;;;5124284;27;19942;-69
2023/12/06 12:48:14;;;;;;;;;;;4.30;99.90;;;;;;5124456;27;20002;-69
2023/12/06 12:50:40;;;;;;;;;;;4.30;99.90;;;;;;5123954;27;20251;-69
2023/12/06 12:53:05;;;;;;;;;;;4.30;99.90;;;;;;5105041;28;19912;-69
2023/12/06 12:55:31;;;;;;;;;;;4.30;99.90;;;;;;5113239;27;20662;-69
2023/12/06 12:57:57;;;;;;;;;;;4.30;99.90;;;;;;5105111;28;19919;-68
2023/12/06 13:00:23;;;;;;;;;;;4.30;99.90;;;;;;5108308;27;19995;-69
2023/12/06 13:02:53;;;;;;;;;;;4.40;99.90;;;;;;5103143;28;20010;-69
2023/12/06 13:05:25;;;;;;;;;;;4.40;99.90;;;;;;5118426;27;20276;-69
2023/12/06 13:07:51;;;;;;;;;;;4.30;99.90;;;;;;5111304;27;20399;-69
2023/12/06 13:10:17;;;;;;;;;;;4.40;99.90;;;;;;5118868;27;19922;-69
2023/12/06 13:12:42;;;;;;;;;;;4.30;99.90;;;;;;5114459;27;19911;-69
2023/12/06 13:15:08;;;;;;;;;;;4.40;99.90;;;;;;5111361;27;19919;-69
2023/12/06 13:17:34;;;;;;;;;;;4.40;99.90;;;;;;5104681;28;19907;-69
2023/12/06 13:19:59;;;;;;;;;;;4.40;99.90;;;;;;5104686;27;19920;-69
2023/12/06 13:22:26;;;;;;;;;;;4.40;99.90;;;;;;5104665;28;19987;-68
2023/12/06 13:24:52;;;;;;;;;;;4.40;99.90;;;;;;5112985;27;19923;-69
2023/12/06 13:27:17;;;;;;;;;;;4.40;99.90;;;;;;5104522;28;19911;-69
2023/12/06 13:29:43;;;;;;;;;;;4.40;99.90;;;;;;5102347;28;19924;-69
2023/12/06 13:32:13;;;;;;;;;;;4.40;99.90;;;;;;5109491;27;20235;-69
2023/12/06 13:34:42;;;;;;;;;;;4.40;99.90;;;;;;5116202;27;19908;-69
2023/12/06 13:37:08;;;;;;;;;;;4.40;99.90;;;;;;5099471;27;19998;-69
2023/12/06 13:39:34;;;;;;;;;;;4.40;99.90;;;;;;5104791;28;20074;-69
2023/12/06 13:42:00;;;;;;;;;;;4.50;99.90;;;;;;5104760;28;19911;-69
2023/12/06 13:44:25;;;;;;;;;;;4.50;99.90;;;;;;5104673;28;19927;-69
2023/12/06 13:46:51;;;;;;;;;;;4.50;99.90;;;;;;5104162;28;19918;-69
2023/12/06 13:49:18;;;;;;;;;;;4.50;99.90;;;;;;5104784;28;19918;-69
2023/12/06 13:51:44;;;;;;;;;;;4.50;99.90;;;;;;5104729;28;19915;-69
2023/12/06 13:54:10;;;;;;;;;;;4.50;99.90;;;;;;5118768;27;19911;-69
2023/12/06 13:56:36;;;;;;;;;;;4.50;99.90;;;;;;5116262;27;20012;-69
2023/12/06 13:59:02;;;;;;;;;;;4.50;99.90;;;;;;5121034;27;19911;-69
2023/12/06 14:01:28;;;;;;;;;;;4.50;99.90;;;;;;5113024;27;19911;-69
2023/12/06 14:03:55;;;;;;;;;;;4.50;99.90;;;;;;5113409;28;19914;-69
2023/12/06 14:06:24;;;;;;;;;;;4.50;99.90;;;;;;5104326;28;20054;-69
2023/12/06 14:08:50;;;;;;;;;;;4.50;99.90;;;;;;5104361;28;19958;-69
2023/12/06 14:11:16;;;;;;;;;;;4.50;99.90;;;;;;5107522;28;19916;-69
2023/12/06 14:13:42;;;;;;;;;;;4.50;99.90;;;;;;5106177;27;19912;-69
2023/12/06 14:16:08;;;;;;;;;;;4.50;99.90;;;;;;5104180;28;19919;-69
2023/12/06 14:18:33;;;;;;;;;;;4.50;99.90;;;;;;5102955;28;19908;-69
2023/12/06 14:21:00;;;;;;;;;;;4.50;99.90;;;;;;5121056;27;20314;-69
2023/12/06 14:23:26;;;;;;;;;;;4.50;99.90;;;;;;5112793;28;19941;-69
2023/12/06 14:25:51;;;;;;;;;;;4.50;99.90;;;;;;5123243;27;19919;-69